createdAt,value
2018-03-20T00:00:13.980Z,-6.47
2018-03-20T00:01:14.006Z,-6.43
2018-03-20T00:02:13.979Z,-6.37
2018-03-20T00:03:13.985Z,-6.36
2018-03-20T00:04:13.993Z,-6.39
2018-03-20T00:05:14.001Z,-6.33
2018-03-20T00:06:14.032Z,-6.38
2018-03-20T00:07:13.994Z,-6.27
2018-03-20T00:08:14.022Z,-6.42
2018-03-20T00:09:14.009Z,-6.4
2018-03-20T00:10:14.004Z,-6.4
2018-03-20T00:11:14.291Z,-6.5
2018-03-20T00:12:14.046Z,-6.4
2018-03-20T00:13:14.037Z,-6.31
2018-03-20T00:14:14.027Z,-6.44
2018-03-20T00:15:14.043Z,-6.59
2018-03-20T00:16:14.055Z,-6.65
2018-03-20T00:17:14.026Z,-6.71
2018-03-20T00:18:14.028Z,-6.97
2018-03-20T00:19:14.031Z,-6.82
2018-03-20T00:20:14.037Z,-7.08
2018-03-20T00:21:14.054Z,-7.03
2018-03-20T00:22:14.038Z,-7.02
2018-03-20T00:23:14.048Z,-7.02
2018-03-20T00:24:14.039Z,-6.95
2018-03-20T00:25:14.043Z,-6.92
2018-03-20T00:26:14.083Z,-6.99
2018-03-20T00:27:14.110Z,-7.16
2018-03-20T00:28:14.048Z,-7.16
2018-03-20T00:29:14.061Z,-7.27
2018-03-20T00:30:14.052Z,-7.13
2018-03-20T00:31:14.059Z,-7.19
2018-03-20T00:32:14.090Z,-7.33
2018-03-20T00:33:14.126Z,-7.23
2018-03-20T00:34:14.075Z,-7.06
2018-03-20T00:35:14.077Z,-6.94
2018-03-20T00:36:14.095Z,-7.04
2018-03-20T00:37:14.089Z,-7.11
2018-03-20T00:38:14.103Z,-7.06
2018-03-20T00:39:14.106Z,-7.13
2018-03-20T00:40:14.076Z,-7.15
2018-03-20T00:41:14.103Z,-7.39
2018-03-20T00:42:14.084Z,-7.41
2018-03-20T00:43:14.096Z,-7.38
2018-03-20T00:44:14.098Z,-7.33
2018-03-20T00:45:14.094Z,-7.22
2018-03-20T00:46:14.263Z,-7.2
2018-03-20T00:47:14.104Z,-7.14
2018-03-20T00:48:14.111Z,-7.15
2018-03-20T00:49:14.112Z,-7.16
2018-03-20T00:50:14.158Z,-7.04
2018-03-20T00:51:14.156Z,-7.01
2018-03-20T00:52:14.120Z,-6.96
2018-03-20T00:53:14.124Z,-6.9
2018-03-20T00:54:14.153Z,-6.91
2018-03-20T00:55:14.130Z,-6.9
2018-03-20T00:56:14.142Z,-6.93
2018-03-20T00:57:14.156Z,-7
2018-03-20T00:58:14.121Z,-6.99
2018-03-20T00:59:14.145Z,-6.91
2018-03-20T01:00:14.143Z,-6.83
2018-03-20T01:01:14.183Z,-6.7
2018-03-20T01:02:14.156Z,-6.64
2018-03-20T01:03:14.147Z,-6.68
2018-03-20T01:04:14.166Z,-6.71
2018-03-20T01:05:14.154Z,-6.7
2018-03-20T01:06:14.198Z,-6.66
2018-03-20T01:07:14.164Z,-6.69
2018-03-20T01:08:14.176Z,-6.7
2018-03-20T01:09:14.164Z,-6.75
2018-03-20T01:10:14.198Z,-6.69
2018-03-20T01:11:14.183Z,-6.59
2018-03-20T01:12:14.176Z,-6.56
2018-03-20T01:13:14.196Z,-6.54
2018-03-20T01:14:14.191Z,-6.5
2018-03-20T01:15:14.190Z,-6.47
2018-03-20T01:16:14.191Z,-6.46
2018-03-20T01:17:14.223Z,-6.45
2018-03-20T01:18:14.216Z,-6.42
2018-03-20T01:19:14.199Z,-6.41
2018-03-20T01:20:14.211Z,-6.41
2018-03-20T01:21:14.214Z,-6.37
2018-03-20T01:22:14.397Z,-6.43
2018-03-20T01:23:14.220Z,-6.45
2018-03-20T01:24:14.233Z,-6.37
2018-03-20T01:25:14.477Z,-6.35
2018-03-20T01:26:14.225Z,-6.35
2018-03-20T01:27:14.256Z,-6.32
2018-03-20T01:28:14.230Z,-6.38
2018-03-20T01:29:14.226Z,-6.33
2018-03-20T01:30:14.225Z,-6.44
2018-03-20T01:31:14.237Z,-6.34
2018-03-20T01:32:14.241Z,-6.33
2018-03-20T01:33:14.252Z,-6.33
2018-03-20T01:34:14.297Z,-6.43
2018-03-20T01:35:14.260Z,-6.37
2018-03-20T01:36:14.273Z,-6.33
2018-03-20T01:37:14.281Z,-6.36
2018-03-20T01:38:14.253Z,-6.43
2018-03-20T01:39:14.277Z,-6.43
2018-03-20T01:40:14.266Z,-6.4
2018-03-20T01:41:14.263Z,-6.46
2018-03-20T01:42:14.312Z,-6.26
2018-03-20T01:43:14.291Z,-6.26
2018-03-20T01:44:14.276Z,-6.28
2018-03-20T01:45:14.292Z,-6.25
2018-03-20T01:46:14.308Z,-6.25
2018-03-20T01:47:14.316Z,-6.23
2018-03-20T01:48:14.307Z,-6.21
2018-03-20T01:49:14.293Z,-6.14
2018-03-20T01:50:14.306Z,-6.16
2018-03-20T01:51:14.346Z,-6.19
2018-03-20T01:52:14.335Z,-6.19
2018-03-20T01:53:14.340Z,-6.16
2018-03-20T01:54:14.410Z,-6.16
2018-03-20T01:55:14.349Z,-6.2
2018-03-20T01:56:14.376Z,-6.23
2018-03-20T01:57:14.386Z,-6.18
2018-03-20T01:58:14.346Z,-6.18
2018-03-20T01:59:14.332Z,-6.27
2018-03-20T02:00:14.387Z,-6.26
2018-03-20T02:01:14.345Z,-6.14
2018-03-20T02:02:14.363Z,-6.24
2018-03-20T02:03:14.372Z,-6.34
2018-03-20T02:04:14.419Z,-6.34
2018-03-20T02:05:14.333Z,-6.32
2018-03-20T02:06:14.343Z,-6.31
2018-03-20T02:07:14.365Z,-6.15
2018-03-20T02:08:14.437Z,-6.11
2018-03-20T02:09:14.502Z,-6.24
2018-03-20T02:10:14.384Z,-6.58
2018-03-20T02:11:14.389Z,-6.54
2018-03-20T02:12:14.384Z,-6.46
2018-03-20T02:13:14.371Z,-6.27
2018-03-20T02:14:14.670Z,-6.3
2018-03-20T02:15:14.366Z,-6.41
2018-03-20T02:16:14.375Z,-6.4
2018-03-20T02:17:14.539Z,-6.42
2018-03-20T02:18:14.384Z,-6.36
2018-03-20T02:19:14.386Z,-6.43
2018-03-20T02:20:14.391Z,-6.49
2018-03-20T02:21:14.384Z,-6.54
2018-03-20T02:22:14.420Z,-6.51
2018-03-20T02:23:14.388Z,-6.45
2018-03-20T02:24:14.391Z,-6.49
2018-03-20T02:25:14.415Z,-6.54
2018-03-20T02:26:14.396Z,-6.32
2018-03-20T02:27:14.414Z,-6.24
2018-03-20T02:28:14.393Z,-6.27
2018-03-20T02:29:14.387Z,-6.28
2018-03-20T02:30:14.417Z,-6.2
2018-03-20T02:31:14.442Z,-6.25
2018-03-20T02:32:14.419Z,-6.21
2018-03-20T02:33:14.420Z,-6.21
2018-03-20T02:34:14.426Z,-6.21
2018-03-20T02:35:14.429Z,-6.25
2018-03-20T02:36:14.440Z,-6.32
2018-03-20T02:37:14.450Z,-6.36
2018-03-20T02:38:14.456Z,-6.36
2018-03-20T02:39:14.432Z,-6.43
2018-03-20T02:40:14.440Z,-6.44
2018-03-20T02:41:14.436Z,-6.3
2018-03-20T02:42:14.447Z,-6.32
2018-03-20T02:43:14.464Z,-6.41
2018-03-20T02:44:14.446Z,-6.47
2018-03-20T02:45:14.436Z,-6.47
2018-03-20T02:46:14.458Z,-6.5
2018-03-20T02:47:14.457Z,-6.46
2018-03-20T02:48:14.452Z,-6.57
2018-03-20T02:49:14.468Z,-6.58
2018-03-20T02:50:14.496Z,-6.55
2018-03-20T02:51:14.530Z,-6.49
2018-03-20T02:52:14.459Z,-6.51
2018-03-20T02:53:14.492Z,-6.43
2018-03-20T02:54:14.519Z,-6.45
2018-03-20T02:55:14.494Z,-6.48
2018-03-20T02:56:14.534Z,-6.52
2018-03-20T02:57:14.483Z,-6.37
2018-03-20T02:58:14.493Z,-6.28
2018-03-20T02:59:14.512Z,-6.28
2018-03-20T03:00:14.498Z,-6.24
2018-03-20T03:01:14.518Z,-6.25
2018-03-20T03:02:14.499Z,-6.28
2018-03-20T03:03:14.498Z,-6.23
2018-03-20T03:04:14.525Z,-6.22
2018-03-20T03:05:14.519Z,-6.2
2018-03-20T03:06:14.495Z,-6.26
2018-03-20T03:07:14.500Z,-6.26
2018-03-20T03:08:14.502Z,-6.24
2018-03-20T03:09:14.528Z,-6.27
2018-03-20T03:10:14.501Z,-6.27
2018-03-20T03:11:14.503Z,-6.24
2018-03-20T03:12:14.545Z,-6.22
2018-03-20T03:13:14.506Z,-6.25
2018-03-20T03:14:14.596Z,-6.41
2018-03-20T03:15:14.516Z,-6.49
2018-03-20T03:16:14.570Z,-6.42
2018-03-20T03:17:14.559Z,-6.39
2018-03-20T03:18:14.539Z,-6.5
2018-03-20T03:19:14.543Z,-6.48
2018-03-20T03:20:14.547Z,-6.46
2018-03-20T03:21:14.561Z,-6.59
2018-03-20T03:22:14.582Z,-6.65
2018-03-20T03:23:14.595Z,-6.53
2018-03-20T03:24:14.564Z,-6.56
2018-03-20T03:25:14.569Z,-6.64
2018-03-20T03:26:14.596Z,-6.52
2018-03-20T03:27:14.576Z,-6.52
2018-03-20T03:28:14.685Z,-6.52
2018-03-20T03:29:14.568Z,-6.55
2018-03-20T03:30:14.615Z,-6.49
2018-03-20T03:31:14.612Z,-6.4
2018-03-20T03:32:14.619Z,-6.39
2018-03-20T03:33:14.615Z,-6.42
2018-03-20T03:34:14.615Z,-6.45
2018-03-20T03:35:14.603Z,-6.44
2018-03-20T03:36:14.594Z,-6.4
2018-03-20T03:37:14.597Z,-6.42
2018-03-20T03:38:14.868Z,-6.37
2018-03-20T03:39:14.635Z,-6.43
2018-03-20T03:40:14.606Z,-6.47
2018-03-20T03:41:14.619Z,-6.45
2018-03-20T03:42:14.641Z,-6.57
2018-03-20T03:43:14.660Z,-6.53
2018-03-20T03:44:14.632Z,-6.64
2018-03-20T03:45:14.636Z,-6.62
2018-03-20T03:46:14.630Z,-6.71
2018-03-20T03:47:14.627Z,-6.71
2018-03-20T03:48:14.669Z,-6.68
2018-03-20T03:49:14.650Z,-6.7
2018-03-20T03:50:14.639Z,-6.75
2018-03-20T03:51:14.684Z,-6.76
2018-03-20T03:52:14.643Z,-6.87
2018-03-20T03:53:14.664Z,-6.85
2018-03-20T03:54:14.636Z,-6.81
2018-03-20T03:55:14.646Z,-6.78
2018-03-20T03:56:14.679Z,-6.81
2018-03-20T03:57:14.725Z,-6.8
2018-03-20T03:58:14.648Z,-6.75
2018-03-20T03:59:14.682Z,-6.85
2018-03-20T04:00:14.673Z,-6.89
2018-03-20T04:01:14.860Z,-6.87
2018-03-20T04:02:14.676Z,-6.78
2018-03-20T04:03:14.683Z,-6.81
2018-03-20T04:04:14.738Z,-6.81
2018-03-20T04:05:14.680Z,-6.85
2018-03-20T04:06:14.694Z,-6.89
2018-03-20T04:07:14.704Z,-6.75
2018-03-20T04:08:14.696Z,-6.73
2018-03-20T04:09:14.707Z,-6.69
2018-03-20T04:10:14.725Z,-6.66
2018-03-20T04:11:14.680Z,-6.68
2018-03-20T04:12:14.693Z,-6.69
2018-03-20T04:13:14.724Z,-6.73
2018-03-20T04:14:14.709Z,-6.65
2018-03-20T04:15:14.714Z,-6.61
2018-03-20T04:16:14.705Z,-6.64
2018-03-20T04:17:14.724Z,-6.59
2018-03-20T04:18:14.931Z,-6.69
2018-03-20T04:19:14.726Z,-6.67
2018-03-20T04:20:14.733Z,-6.71
2018-03-20T04:21:14.758Z,-6.72
2018-03-20T04:22:14.743Z,-6.84
2018-03-20T04:23:14.741Z,-6.86
2018-03-20T04:24:14.740Z,-6.97
2018-03-20T04:25:14.733Z,-6.94
2018-03-20T04:26:14.753Z,-7.03
2018-03-20T04:27:14.747Z,-7.01
2018-03-20T04:28:14.764Z,-7.09
2018-03-20T04:29:14.787Z,-7.07
2018-03-20T04:30:14.770Z,-7.12
2018-03-20T04:31:14.766Z,-7.08
2018-03-20T04:32:14.790Z,-7.09
2018-03-20T04:33:14.767Z,-7.08
2018-03-20T04:34:14.813Z,-7.17
2018-03-20T04:35:14.803Z,-7.05
2018-03-20T04:36:14.797Z,-7.07
2018-03-20T04:37:14.795Z,-7
2018-03-20T04:38:14.819Z,-7.02
2018-03-20T04:39:14.820Z,-7.06
2018-03-20T04:40:14.829Z,-7.09
2018-03-20T04:41:14.835Z,-7.03
2018-03-20T04:42:14.832Z,-7
2018-03-20T04:43:14.841Z,-6.97
2018-03-20T04:44:14.829Z,-6.91
2018-03-20T04:45:14.855Z,-7
2018-03-20T04:46:14.857Z,-7
2018-03-20T04:47:14.830Z,-7.07
2018-03-20T04:48:14.907Z,-6.94
2018-03-20T04:49:14.855Z,-6.92
2018-03-20T04:50:14.844Z,-6.96
2018-03-20T04:51:14.873Z,-7.07
2018-03-20T04:52:14.881Z,-7
2018-03-20T04:53:14.871Z,-7
2018-03-20T04:54:14.876Z,-6.92
2018-03-20T04:55:14.886Z,-7
2018-03-20T04:56:14.911Z,-7.02
2018-03-20T04:57:14.900Z,-6.98
2018-03-20T04:58:14.876Z,-6.96
2018-03-20T04:59:15.171Z,-7.06
2018-03-20T05:00:14.910Z,-7.07
2018-03-20T05:01:14.910Z,-7
2018-03-20T05:02:14.883Z,-7.02
2018-03-20T05:03:14.916Z,-7.03
2018-03-20T05:04:14.911Z,-7.14
2018-03-20T05:05:14.904Z,-7.04
2018-03-20T05:06:14.917Z,-7.11
2018-03-20T05:07:14.943Z,-7.11
2018-03-20T05:08:14.917Z,-7.07
2018-03-20T05:09:14.928Z,-7.02
2018-03-20T05:10:14.941Z,-7.05
2018-03-20T05:11:14.978Z,-7.06
2018-03-20T05:12:15.154Z,-7.08
2018-03-20T05:13:14.930Z,-7.09
2018-03-20T05:14:14.945Z,-7.07
2018-03-20T05:15:14.938Z,-7.02
2018-03-20T05:16:14.961Z,-7.13
2018-03-20T05:17:14.945Z,-7.05
2018-03-20T05:18:14.947Z,-7.01
2018-03-20T05:19:14.951Z,-6.98
2018-03-20T05:20:14.961Z,-7.01
2018-03-20T05:21:14.990Z,-6.97
2018-03-20T05:22:14.979Z,-6.96
2018-03-20T05:23:14.961Z,-7.02
2018-03-20T05:24:14.977Z,-7.02
2018-03-20T05:25:14.968Z,-6.92
2018-03-20T05:26:14.972Z,-6.99
2018-03-20T05:27:14.992Z,-7.01
2018-03-20T05:28:14.987Z,-6.98
2018-03-20T05:29:14.973Z,-7.03
2018-03-20T05:30:14.990Z,-7.07
2018-03-20T05:31:14.978Z,-7.05
2018-03-20T05:32:14.997Z,-7.06
2018-03-20T05:33:15.005Z,-7.02
2018-03-20T05:34:15.012Z,-7.07
2018-03-20T05:35:15.022Z,-7.12
2018-03-20T05:36:15.016Z,-6.98
2018-03-20T05:37:15.012Z,-6.99
2018-03-20T05:38:15.022Z,-6.99
2018-03-20T05:39:15.019Z,-6.97
2018-03-20T05:40:15.053Z,-6.95
2018-03-20T05:41:15.016Z,-6.99
2018-03-20T05:42:15.024Z,-7
2018-03-20T05:43:15.048Z,-7.04
2018-03-20T05:44:15.047Z,-7.04
2018-03-20T05:45:15.066Z,-6.98
2018-03-20T05:46:15.050Z,-6.98
2018-03-20T05:47:15.030Z,-6.95
2018-03-20T05:48:15.068Z,-6.9
2018-03-20T05:49:15.043Z,-6.9
2018-03-20T05:50:15.056Z,-6.91
2018-03-20T05:51:15.071Z,-6.91
2018-03-20T05:52:15.049Z,-6.94
2018-03-20T05:53:15.071Z,-6.94
2018-03-20T05:54:15.066Z,-6.96
2018-03-20T05:55:15.118Z,-6.98
2018-03-20T05:56:15.073Z,-7.02
2018-03-20T05:57:15.066Z,-6.97
2018-03-20T05:58:15.525Z,-6.94
2018-03-20T05:59:15.071Z,-6.96
2018-03-20T06:00:15.118Z,-6.98
2018-03-20T06:01:15.069Z,-7
2018-03-20T06:02:15.073Z,-6.98
2018-03-20T06:03:15.229Z,-6.9
2018-03-20T06:04:15.076Z,-6.88
2018-03-20T06:05:15.068Z,-6.85
2018-03-20T06:06:15.364Z,-6.82
2018-03-20T06:07:15.108Z,-6.8
2018-03-20T06:08:15.513Z,-6.85
2018-03-20T06:09:15.106Z,-6.84
2018-03-20T06:10:15.102Z,-6.82
2018-03-20T06:11:15.102Z,-6.78
2018-03-20T06:12:15.110Z,-6.75
2018-03-20T06:13:15.144Z,-6.8
2018-03-20T06:14:15.108Z,-6.8
2018-03-20T06:15:15.119Z,-6.82
2018-03-20T06:16:15.132Z,-6.74
2018-03-20T06:17:15.138Z,-6.78
2018-03-20T06:18:15.139Z,-6.83
2018-03-20T06:19:15.117Z,-6.85
2018-03-20T06:20:15.173Z,-6.77
2018-03-20T06:21:15.133Z,-6.74
2018-03-20T06:22:15.140Z,-6.82
2018-03-20T06:23:15.156Z,-6.83
2018-03-20T06:24:15.148Z,-6.77
2018-03-20T06:25:15.141Z,-6.69
2018-03-20T06:26:15.164Z,-6.7
2018-03-20T06:27:22.443Z,-6.74
2018-03-20T06:28:23.183Z,-6.78
2018-03-20T06:29:19.759Z,-6.74
2018-03-20T06:30:22.237Z,-6.77
2018-03-20T06:31:23.817Z,-6.77
2018-03-20T06:32:15.169Z,-6.8
2018-03-20T06:33:15.168Z,-6.79
2018-03-20T06:34:15.172Z,-6.8
2018-03-20T06:35:15.219Z,-6.8
2018-03-20T06:36:15.184Z,-6.83
2018-03-20T06:37:15.184Z,-6.85
2018-03-20T06:38:15.195Z,-6.8
2018-03-20T06:39:15.199Z,-6.81
2018-03-20T06:40:15.207Z,-6.83
2018-03-20T06:41:15.204Z,-6.87
2018-03-20T06:42:15.222Z,-6.89
2018-03-20T06:43:15.204Z,-6.92
2018-03-20T06:44:15.206Z,-6.95
2018-03-20T06:45:15.246Z,-6.96
2018-03-20T06:46:15.231Z,-7.01
2018-03-20T06:47:15.208Z,-6.93
2018-03-20T06:48:15.250Z,-6.85
2018-03-20T06:49:15.238Z,-6.82
2018-03-20T06:50:15.226Z,-6.79
2018-03-20T06:51:15.220Z,-6.83
2018-03-20T06:52:15.251Z,-6.83
2018-03-20T06:53:15.228Z,-6.79
2018-03-20T06:54:15.231Z,-6.74
2018-03-20T06:55:15.240Z,-6.73
2018-03-20T06:56:15.250Z,-6.9
2018-03-20T06:57:15.243Z,-6.82
2018-03-20T06:58:15.278Z,-6.81
2018-03-20T06:59:15.282Z,-6.85
2018-03-20T07:00:15.242Z,-6.98
2018-03-20T07:01:15.265Z,-6.91
2018-03-20T07:02:15.264Z,-6.94
2018-03-20T07:03:15.298Z,-6.89
2018-03-20T07:04:15.279Z,-6.84
2018-03-20T07:05:15.263Z,-6.82
2018-03-20T07:06:15.513Z,-6.86
2018-03-20T07:07:15.284Z,-6.92
2018-03-20T07:08:15.301Z,-6.89
2018-03-20T07:09:15.288Z,-6.83
2018-03-20T07:10:15.295Z,-6.81
2018-03-20T07:11:15.303Z,-6.72
2018-03-20T07:12:15.295Z,-6.69
2018-03-20T07:13:15.318Z,-6.8
2018-03-20T07:14:15.351Z,-6.76
2018-03-20T07:15:15.313Z,-6.77
2018-03-20T07:16:15.365Z,-6.83
2018-03-20T07:17:15.338Z,-6.78
2018-03-20T07:18:15.317Z,-6.83
2018-03-20T07:19:15.322Z,-6.79
2018-03-20T07:20:15.340Z,-6.81
2018-03-20T07:21:15.348Z,-6.79
2018-03-20T07:22:15.327Z,-6.89
2018-03-20T07:23:15.334Z,-6.87
2018-03-20T07:24:15.364Z,-6.86
2018-03-20T07:25:15.352Z,-6.93
2018-03-20T07:26:15.352Z,-7.06
2018-03-20T07:27:15.370Z,-7.08
2018-03-20T07:28:15.712Z,-7.1
2018-03-20T07:29:15.389Z,-7.09
2018-03-20T07:30:15.409Z,-7
2018-03-20T07:31:15.375Z,-7.08
2018-03-20T07:32:15.365Z,-7.17
2018-03-20T07:33:15.368Z,-7.14
2018-03-20T07:34:15.404Z,-7.07
2018-03-20T07:35:15.394Z,-6.99
2018-03-20T07:36:15.397Z,-7.1
2018-03-20T07:37:15.386Z,-7.04
2018-03-20T07:38:15.398Z,-7.07
2018-03-20T07:39:15.562Z,-7.03
2018-03-20T07:40:15.399Z,-6.97
2018-03-20T07:41:15.390Z,-6.94
2018-03-20T07:42:15.462Z,-7.02
2018-03-20T07:43:15.407Z,-7.04
2018-03-20T07:44:15.447Z,-6.94
2018-03-20T07:45:15.430Z,-6.98
2018-03-20T07:46:15.413Z,-6.93
2018-03-20T07:47:15.421Z,-6.89
2018-03-20T07:48:15.452Z,-6.9
2018-03-20T07:49:15.450Z,-6.88
2018-03-20T07:50:15.431Z,-6.87
2018-03-20T07:51:15.445Z,-6.88
2018-03-20T07:52:15.471Z,-6.87
2018-03-20T07:53:15.460Z,-7
2018-03-20T07:54:15.469Z,-6.93
2018-03-20T07:55:15.471Z,-6.88
2018-03-20T07:56:15.477Z,-6.87
2018-03-20T07:57:15.475Z,-6.75
2018-03-20T07:58:15.491Z,-6.74
2018-03-20T07:59:15.501Z,-6.68
2018-03-20T08:00:15.653Z,-6.66
2018-03-20T08:01:15.501Z,-6.66
2018-03-20T08:02:15.512Z,-6.56
2018-03-20T08:03:15.505Z,-6.54
2018-03-20T08:04:15.536Z,-6.52
2018-03-20T08:05:15.538Z,-6.53
2018-03-20T08:06:15.523Z,-6.5
2018-03-20T08:07:15.515Z,-6.61
2018-03-20T08:08:15.521Z,-6.58
2018-03-20T08:09:15.537Z,-6.5
2018-03-20T08:10:15.576Z,-6.44
2018-03-20T08:11:15.566Z,-6.55
2018-03-20T08:12:15.544Z,-6.69
2018-03-20T08:13:15.554Z,-6.73
2018-03-20T08:14:15.576Z,-6.82
2018-03-20T08:15:15.598Z,-6.96
2018-03-20T08:16:15.574Z,-6.95
2018-03-20T08:17:15.575Z,-6.99
2018-03-20T08:18:15.573Z,-7.13
2018-03-20T08:19:15.580Z,-7.17
2018-03-20T08:20:15.631Z,-7.1
2018-03-20T08:21:15.603Z,-7.18
2018-03-20T08:22:15.588Z,-6.89
2018-03-20T08:23:15.629Z,-6.75
2018-03-20T08:24:15.588Z,-6.86
2018-03-20T08:25:15.618Z,-7.07
2018-03-20T08:26:15.594Z,-7.05
2018-03-20T08:27:15.590Z,-7.15
2018-03-20T08:28:15.645Z,-6.77
2018-03-20T08:29:15.802Z,-6.72
2018-03-20T08:30:15.618Z,-6.73
2018-03-20T08:31:15.625Z,-6.77
2018-03-20T08:32:15.621Z,-6.76
2018-03-20T08:33:15.617Z,-6.84
2018-03-20T08:34:15.610Z,-6.93
2018-03-20T08:35:15.627Z,-6.85
2018-03-20T08:36:15.610Z,-6.91
2018-03-20T08:37:15.620Z,-6.85
2018-03-20T08:38:15.692Z,-6.95
2018-03-20T08:39:15.651Z,-6.86
2018-03-20T08:40:15.681Z,-6.9
2018-03-20T08:41:15.629Z,-6.88
2018-03-20T08:42:15.634Z,-6.79
2018-03-20T08:43:15.630Z,-6.97
2018-03-20T08:44:15.634Z,-7.07
2018-03-20T08:45:15.747Z,-6.89
2018-03-20T08:46:15.651Z,-6.74
2018-03-20T08:47:15.639Z,-6.94
2018-03-20T08:48:15.642Z,-7.04
2018-03-20T08:49:15.655Z,-7.27
2018-03-20T08:50:15.674Z,-7.52
2018-03-20T08:51:15.666Z,-7.59
2018-03-20T08:52:15.657Z,-7.26
2018-03-20T08:53:15.660Z,-6.94
2018-03-20T08:54:15.667Z,-6.89
2018-03-20T08:55:15.685Z,-6.79
2018-03-20T08:56:15.808Z,-6.83
2018-03-20T08:57:15.802Z,-6.64
2018-03-20T08:58:15.680Z,-6.87
2018-03-20T08:59:15.693Z,-6.81
2018-03-20T09:00:15.844Z,-7.23
2018-03-20T09:01:15.719Z,-7.26
2018-03-20T09:02:15.721Z,-7.99
2018-03-20T09:03:15.716Z,-7.9
2018-03-20T09:04:15.736Z,-8.07
2018-03-20T09:05:15.860Z,-8.51
2018-03-20T09:06:15.752Z,-8.53
2018-03-20T09:07:15.780Z,-8.17
2018-03-20T09:08:15.742Z,-7.89
2018-03-20T09:09:15.798Z,-8.14
2018-03-20T09:10:15.795Z,-8.2
2018-03-20T09:11:15.798Z,-8.27
2018-03-20T09:12:15.826Z,-7.85
2018-03-20T09:13:15.811Z,-8.01
2018-03-20T09:14:15.828Z,-8.12
2018-03-20T09:15:15.789Z,-8.03
2018-03-20T09:16:16.018Z,-8.17
2018-03-20T09:17:15.754Z,-7.72
2018-03-20T09:18:15.742Z,-7.53
2018-03-20T09:19:15.748Z,-7.74
2018-03-20T09:20:15.768Z,-7.85
2018-03-20T09:21:15.768Z,-7.98
2018-03-20T09:22:15.769Z,-7.98
2018-03-20T09:23:15.780Z,-8.41
2018-03-20T09:24:15.772Z,-8.49
2018-03-20T09:25:15.776Z,-8.09
2018-03-20T09:26:15.806Z,-8.15
2018-03-20T09:27:15.804Z,-8.06
2018-03-20T09:28:15.776Z,-8.1
2018-03-20T09:29:15.770Z,-7.66
2018-03-20T09:30:15.777Z,-7.61
2018-03-20T09:31:15.822Z,-7.88
2018-03-20T09:32:15.792Z,-8.3
2018-03-20T09:33:15.838Z,-7.87
2018-03-20T09:34:15.812Z,-7.66
2018-03-20T09:35:15.793Z,-7.74
2018-03-20T09:36:15.821Z,-8.63
2018-03-20T09:37:15.821Z,-8.97
2018-03-20T09:38:15.832Z,-9.34
2018-03-20T09:39:15.817Z,-9.51
2018-03-20T09:40:15.820Z,-9.39
2018-03-20T09:41:16.577Z,-8.94
2018-03-20T09:42:15.854Z,-9.29
2018-03-20T09:43:15.846Z,-9.39
2018-03-20T09:44:15.886Z,-9.84
2018-03-20T09:45:15.832Z,-9.32
2018-03-20T09:46:15.834Z,-9.22
2018-03-20T09:47:15.835Z,-8.93
2018-03-20T09:48:15.836Z,-9.49
2018-03-20T09:49:15.838Z,-9.77
2018-03-20T09:50:15.995Z,-9.47
2018-03-20T09:51:16.205Z,-9.66
2018-03-20T09:52:15.862Z,-9.33
2018-03-20T09:53:15.856Z,-9.16
2018-03-20T09:54:15.957Z,-9.32
2018-03-20T09:55:15.855Z,-9.73
2018-03-20T09:56:15.897Z,-9.87
2018-03-20T09:57:15.861Z,-9.8
2018-03-20T09:58:15.851Z,-9.49
2018-03-20T09:59:15.865Z,-9.99
2018-03-20T10:00:16.121Z,-9.73
2018-03-20T10:01:15.855Z,-9.88
2018-03-20T10:02:15.866Z,-9.68
2018-03-20T10:03:15.854Z,-9.69
2018-03-20T10:04:15.857Z,-9.78
2018-03-20T10:05:15.868Z,-9.94
2018-03-20T10:06:15.892Z,-9.57
2018-03-20T10:07:15.871Z,-8.79
2018-03-20T10:08:15.868Z,-8.96
2018-03-20T10:09:15.874Z,-9.2
2018-03-20T10:10:15.875Z,-8.18
2018-03-20T10:11:15.878Z,-7.58
2018-03-20T10:12:16.028Z,-7.17
2018-03-20T10:13:15.920Z,-7.26
2018-03-20T10:14:15.893Z,-7.13
2018-03-20T10:15:15.936Z,-6.8
2018-03-20T10:16:15.920Z,-6.76
2018-03-20T10:17:16.177Z,-6.69
2018-03-20T10:18:15.915Z,-6.71
2018-03-20T10:19:15.967Z,-6.79
2018-03-20T10:20:16.513Z,-6.64
2018-03-20T10:21:15.926Z,-6.65
2018-03-20T10:22:15.949Z,-6.7
2018-03-20T10:23:15.937Z,-7.17
2018-03-20T10:24:15.961Z,-7.35
2018-03-20T10:25:15.952Z,-7.54
2018-03-20T10:26:16.162Z,-7.85
2018-03-20T10:27:15.969Z,-7.64
2018-03-20T10:28:15.948Z,-7.56
2018-03-20T10:29:15.951Z,-7.49
2018-03-20T10:30:15.950Z,-7.57
2018-03-20T10:31:15.974Z,-7.61
2018-03-20T10:32:15.949Z,-7.53
2018-03-20T10:33:15.967Z,-7.95
2018-03-20T10:34:15.973Z,-8.34
2018-03-20T10:35:15.968Z,-8.75
2018-03-20T10:36:15.942Z,-9.02
2018-03-20T10:37:15.985Z,-8.6
2018-03-20T10:38:16.012Z,-8.74
2018-03-20T10:39:15.967Z,-8.51
2018-03-20T10:40:15.974Z,-8.66
2018-03-20T10:41:15.972Z,-8.42
2018-03-20T10:42:15.984Z,-8.19
2018-03-20T10:43:16.006Z,-8.06
2018-03-20T10:44:15.985Z,-8.32
2018-03-20T10:45:15.987Z,-8.12
2018-03-20T10:46:15.968Z,-8.03
2018-03-20T10:47:15.982Z,-8.62
2018-03-20T10:48:16.017Z,-8.44
2018-03-20T10:49:16.030Z,-8.99
2018-03-20T10:50:15.998Z,-8.36
2018-03-20T10:51:15.994Z,-8.28
2018-03-20T10:52:16.014Z,-8.36
2018-03-20T10:53:16.043Z,-7.79
2018-03-20T10:54:16.004Z,-7.58
2018-03-20T10:55:16.033Z,-7.66
2018-03-20T10:56:16.009Z,-7.89
2018-03-20T10:57:16.022Z,-8.21
2018-03-20T10:58:16.144Z,-8.04
2018-03-20T10:59:16.027Z,-7.62
2018-03-20T11:00:16.033Z,-7.85
2018-03-20T11:01:16.040Z,-7.41
2018-03-20T11:02:16.100Z,-7.48
2018-03-20T11:03:16.089Z,-7.76
2018-03-20T11:04:16.095Z,-7.59
2018-03-20T11:05:16.039Z,-7.74
2018-03-20T11:06:16.044Z,-7.91
2018-03-20T11:07:16.043Z,-7.33
2018-03-20T11:08:16.093Z,-7.28
2018-03-20T11:09:16.069Z,-7.04
2018-03-20T11:10:16.067Z,-7.25
2018-03-20T11:11:16.082Z,-7.6
2018-03-20T11:12:16.061Z,-7.32
2018-03-20T11:13:16.081Z,-7.18
2018-03-20T11:14:16.067Z,-7.02
2018-03-20T11:15:16.076Z,-6.9
2018-03-20T11:16:16.078Z,-6.74
2018-03-20T11:17:16.071Z,-6.11
2018-03-20T11:18:16.088Z,-5.16
2018-03-20T11:19:16.080Z,-4.3
2018-03-20T11:20:16.099Z,-3.97
2018-03-20T11:21:16.093Z,-4.25
2018-03-20T11:22:16.099Z,-3.88
2018-03-20T11:23:16.394Z,-3.62
2018-03-20T11:24:16.111Z,-3.62
2018-03-20T11:25:16.110Z,-3.19
2018-03-20T11:26:16.097Z,-2.66
2018-03-20T11:27:16.116Z,-3.1
2018-03-20T11:28:16.163Z,-2.86
2018-03-20T11:29:16.110Z,-2.77
2018-03-20T11:30:16.117Z,-2.72
2018-03-20T11:31:16.110Z,-2.49
2018-03-20T11:32:16.120Z,-2.38
2018-03-20T11:33:16.126Z,-2.34
2018-03-20T11:34:16.133Z,-2.34
2018-03-20T11:35:16.142Z,-2.37
2018-03-20T11:36:16.150Z,-2.15
2018-03-20T11:37:16.169Z,-2.24
2018-03-20T11:38:16.180Z,-2.2
2018-03-20T11:39:16.147Z,-2.22
2018-03-20T11:40:16.147Z,-2.31
2018-03-20T11:41:16.165Z,-1.98
2018-03-20T11:42:16.151Z,-2.12
2018-03-20T11:43:16.176Z,-2.08
2018-03-20T11:44:16.179Z,-2.23
2018-03-20T11:45:16.166Z,-2.29
2018-03-20T11:46:16.166Z,-2.17
2018-03-20T11:47:16.181Z,-1.81
2018-03-20T11:48:16.482Z,-2
2018-03-20T11:49:16.170Z,-2.1
2018-03-20T11:50:16.189Z,-2.17
2018-03-20T11:51:16.197Z,-2.15
2018-03-20T11:52:16.185Z,-2.05
2018-03-20T11:53:16.208Z,-2.17
2018-03-20T11:54:16.198Z,-2.21
2018-03-20T11:55:16.202Z,-2.22
2018-03-20T11:56:16.191Z,-2.12
2018-03-20T11:57:16.195Z,-2.02
2018-03-20T11:58:16.232Z,-2.4
2018-03-20T11:59:16.251Z,-2.22
2018-03-20T12:00:16.199Z,-1.97
2018-03-20T12:01:16.267Z,-2.04
2018-03-20T12:02:16.463Z,-1.89
2018-03-20T12:03:16.233Z,-1.9
2018-03-20T12:04:16.232Z,-2.16
2018-03-20T12:05:16.232Z,-2.17
2018-03-20T12:06:16.222Z,-2.46
2018-03-20T12:07:16.233Z,-2.3
2018-03-20T12:08:16.243Z,-2.57
2018-03-20T12:09:16.241Z,-2.42
2018-03-20T12:10:16.248Z,-2.6
2018-03-20T12:11:16.231Z,-2.67
2018-03-20T12:12:16.242Z,-2.56
2018-03-20T12:13:16.278Z,-2.31
2018-03-20T12:14:16.237Z,-2.37
2018-03-20T12:15:16.259Z,-2.54
2018-03-20T12:16:16.274Z,-2.66
2018-03-20T12:17:16.266Z,-2.3
2018-03-20T12:18:16.296Z,-2.56
2018-03-20T12:19:16.275Z,-2.78
2018-03-20T12:20:16.263Z,-2.81
2018-03-20T12:21:16.283Z,-2.52
2018-03-20T12:22:16.294Z,-2.4
2018-03-20T12:23:16.317Z,-2.23
2018-03-20T12:24:16.297Z,-2.55
2018-03-20T12:25:17.023Z,-2.34
2018-03-20T12:26:16.290Z,-2.59
2018-03-20T12:27:16.282Z,-2.45
2018-03-20T12:28:16.282Z,-2.39
2018-03-20T12:29:16.330Z,-2.26
2018-03-20T12:30:16.301Z,-2.54
2018-03-20T12:31:16.290Z,-2.56
2018-03-20T12:32:16.293Z,-2.72
2018-03-20T12:33:16.300Z,-2.61
2018-03-20T12:34:16.359Z,-2.5
2018-03-20T12:35:16.350Z,-2.86
2018-03-20T12:36:16.324Z,-2.68
2018-03-20T12:37:16.342Z,-2.51
2018-03-20T12:38:16.327Z,-2.46
2018-03-20T12:39:16.356Z,-2.53
2018-03-20T12:40:16.326Z,-2.62
2018-03-20T12:41:16.341Z,-2.63
2018-03-20T12:42:16.330Z,-3.03
2018-03-20T12:43:16.336Z,-2.72
2018-03-20T12:44:16.359Z,-2.93
2018-03-20T12:45:16.346Z,-2.81
2018-03-20T12:46:16.344Z,-2.82
2018-03-20T12:47:16.368Z,-2.81
2018-03-20T12:48:16.365Z,-2.92
2018-03-20T12:49:16.350Z,-2.74
2018-03-20T12:50:16.364Z,-2.98
2018-03-20T12:51:16.363Z,-3.08
2018-03-20T12:52:16.364Z,-3.11
2018-03-20T12:53:16.402Z,-2.88
2018-03-20T12:54:16.358Z,-2.85
2018-03-20T12:55:16.415Z,-2.81
2018-03-20T12:56:16.378Z,-2.68